createdAt,value
2019-03-04T00:02:10.930Z,98172.96
2019-03-04T00:04:43.883Z,98172.08
2019-03-04T00:07:16.693Z,98163.86
2019-03-04T00:09:50.416Z,98170.63
2019-03-04T00:12:23.224Z,98157.89
2019-03-04T00:14:56.325Z,98143.41
2019-03-04T00:17:29.049Z,98144.33
2019-03-04T00:20:02.215Z,98125.53
2019-03-04T00:22:35.060Z,98124.95
2019-03-04T00:25:07.628Z,98124.66
2019-03-04T00:27:40.915Z,98130.58
2019-03-04T00:30:16.431Z,98125.80
2019-03-04T00:32:49.018Z,98106.44
2019-03-04T00:35:24.366Z,98098.67
2019-03-04T00:37:56.980Z,98089.53
2019-03-04T00:40:29.783Z,98071.88
2019-03-04T00:43:03.030Z,98055.94
2019-03-04T00:45:35.585Z,98057.09
2019-03-04T00:48:08.105Z,98052.92
2019-03-04T00:50:41.359Z,98027.55
2019-03-04T00:53:13.178Z,98021.48
2019-03-04T00:55:45.817Z,98016.44
2019-03-04T00:58:18.882Z,98015.94
2019-03-04T01:00:51.423Z,98016.92
2019-03-04T01:03:23.974Z,98024.57
2019-03-04T01:05:57.808Z,98016.68
2019-03-04T01:08:30.433Z,98036.74
2019-03-04T01:11:02.969Z,98041.80
2019-03-04T01:13:35.857Z,98035.92
2019-03-04T01:16:08.554Z,98019.28
2019-03-04T01:18:41.366Z,98017.27
2019-03-04T01:21:14.235Z,98021.59
2019-03-04T01:23:46.830Z,98029.50
2019-03-04T01:26:19.435Z,98023.98
2019-03-04T01:28:53.316Z,98024.98
2019-03-04T01:31:26.631Z,98026.30
2019-03-04T01:33:59.373Z,98024.40
2019-03-04T01:36:33.914Z,98014.57
2019-03-04T01:39:07.457Z,97994.63
2019-03-04T01:41:40.563Z,97986.18
2019-03-04T01:44:15.419Z,97945.89
2019-03-04T01:46:48.397Z,97956.98
2019-03-04T01:49:20.980Z,97995.92
2019-03-04T01:51:54.122Z,97981.02
2019-03-04T01:54:28.140Z,97935.31
2019-03-04T01:57:00.713Z,97935.66
2019-03-04T01:59:33.524Z,97940.22
2019-03-04T02:02:06.133Z,97924.11
2019-03-04T02:04:38.725Z,97913.68
2019-03-04T02:07:13.915Z,97928.02
2019-03-04T02:09:46.528Z,97921.59
2019-03-04T02:12:19.479Z,97916.69
2019-03-04T02:14:52.288Z,97894.34
2019-03-04T02:17:24.838Z,97893.77
2019-03-04T02:19:57.377Z,97881.69
2019-03-04T02:22:31.685Z,97873.73
2019-03-04T02:25:04.747Z,97867.73
2019-03-04T02:27:37.863Z,97848.50
2019-03-04T02:30:19.658Z,97834.67
2019-03-04T02:32:52.294Z,97789.33
2019-03-04T02:35:24.904Z,97803.36
2019-03-04T02:37:57.839Z,97782.02
2019-03-04T02:40:30.676Z,97790.77
2019-03-04T02:43:03.451Z,97801.41
2019-03-04T02:45:36.582Z,97780.88
2019-03-04T02:48:09.202Z,97768.05
2019-03-04T02:50:41.806Z,97774.77
2019-03-04T02:53:15.509Z,97775.34
2019-03-04T02:55:48.147Z,97747.41
2019-03-04T02:58:20.929Z,97733.47
2019-03-04T03:00:53.788Z,97737.83
2019-03-04T03:03:26.884Z,97727.47
2019-03-04T03:05:59.506Z,97718.82
2019-03-04T03:08:32.425Z,97717.44
2019-03-04T03:11:05.315Z,97716.84
2019-03-04T03:13:39.020Z,97712.68
2019-03-04T03:16:12.252Z,97703.09
2019-03-04T03:18:45.041Z,97682.05
2019-03-04T03:21:17.607Z,97679.31
2019-03-04T03:23:51.568Z,97655.47
2019-03-04T03:26:24.216Z,97643.39
2019-03-04T03:28:57.182Z,97623.16
2019-03-04T03:31:29.979Z,97609.64
2019-03-04T03:34:02.590Z,97586.05
2019-03-04T03:36:35.129Z,97572.69
2019-03-04T03:39:08.408Z,97581.77
2019-03-04T03:41:41.468Z,97550.33
2019-03-04T03:44:14.140Z,97546.47
2019-03-04T03:46:49.112Z,97539.34
2019-03-04T03:49:21.747Z,97551.64
2019-03-04T03:51:54.215Z,97555.80
2019-03-04T03:54:27.110Z,97540.08
2019-03-04T03:56:59.566Z,97578.55
2019-03-04T03:59:32.204Z,97578.20
2019-03-04T04:02:05.820Z,97548.70
2019-03-04T04:04:38.498Z,97576.22
2019-03-04T04:07:11.052Z,97541.98
2019-03-04T04:09:44.113Z,97538.82
2019-03-04T04:12:17.424Z,97542.30
2019-03-04T04:14:50.053Z,97521.17
2019-03-04T04:17:24.047Z,97499.84
2019-03-04T04:19:56.824Z,97461.38
2019-03-04T04:22:30.456Z,97433.23
2019-03-04T04:25:03.994Z,97458.50
2019-03-04T04:27:36.674Z,97461.83
2019-03-04T04:30:09.832Z,97463.58
2019-03-04T04:32:47.851Z,97444.70
2019-03-04T04:35:20.599Z,97430.84
2019-03-04T04:37:54.306Z,97443.17
2019-03-04T04:40:26.926Z,97445.55
2019-03-04T04:42:59.587Z,97456.87
2019-03-04T04:45:32.522Z,97452.09
2019-03-04T04:48:05.164Z,97444.56
2019-03-04T04:50:37.663Z,97435.33
2019-03-04T04:53:12.767Z,97452.91
2019-03-04T04:55:47.676Z,97442.88
2019-03-04T04:58:30.185Z,97426.13
2019-03-04T05:01:07.740Z,97425.36
2019-03-04T05:03:42.360Z,97437.54
2019-03-04T05:06:16.302Z,97410.95
2019-03-04T05:08:51.428Z,97408.16
2019-03-04T05:11:27.098Z,97379.84
2019-03-04T05:14:20.098Z,97379.05
2019-03-04T05:17:23.817Z,97396.92
2019-03-04T05:20:38.217Z,97390.94
2019-03-04T05:23:15.961Z,97394.31
2019-03-04T05:25:49.679Z,97385.20
2019-03-04T05:28:22.190Z,97376.86
2019-03-04T05:30:54.899Z,97361.90
2019-03-04T05:33:50.030Z,97372.00
2019-03-04T05:36:26.891Z,97366.38
2019-03-04T05:39:21.667Z,97351.86
2019-03-04T05:41:58.801Z,97355.67
2019-03-04T05:44:32.274Z,97341.95
2019-03-04T05:47:05.370Z,97331.70
2019-03-04T05:49:37.982Z,97325.66
2019-03-04T05:52:10.602Z,97304.71
2019-03-04T05:54:45.813Z,97317.20
2019-03-04T05:57:18.504Z,97304.09
2019-03-04T05:59:51.124Z,97284.95
2019-03-04T06:02:24.150Z,97280.23
2019-03-04T06:04:57.296Z,97251.02
2019-03-04T06:07:37.046Z,97263.03
2019-03-04T06:10:13.211Z,97289.33
2019-03-04T06:12:46.586Z,97549.09
2019-03-04T06:15:21.147Z,97516.47
2019-03-04T06:17:53.683Z,97515.92
2019-03-04T06:20:26.493Z,97549.44
2019-03-04T06:22:59.779Z,97532.27
2019-03-04T06:25:32.592Z,97527.83
2019-03-04T06:28:05.349Z,97519.37
2019-03-04T06:30:38.056Z,97528.25
2019-03-04T06:33:10.727Z,97538.58
2019-03-04T06:35:43.520Z,97529.38
2019-03-04T06:38:16.696Z,97529.83
2019-03-04T06:40:49.515Z,97551.77
2019-03-04T06:43:22.339Z,97506.59
2019-03-04T06:45:55.414Z,97508.06
2019-03-04T06:48:28.232Z,97472.67
2019-03-04T06:51:01.540Z,97460.45
2019-03-04T06:54:03.442Z,97450.61
2019-03-04T06:56:46.774Z,97444.34
2019-03-04T07:00:00.430Z,97416.45
2019-03-04T07:02:43.199Z,97425.36
2019-03-04T07:05:48.614Z,97420.73
2019-03-04T07:09:02.331Z,97417.73
2019-03-04T07:11:38.099Z,97431.80
2019-03-04T07:14:12.709Z,97442.94
2019-03-04T07:16:50.733Z,97446.39
2019-03-04T07:19:37.456Z,97443.19
2019-03-04T07:22:16.739Z,97456.33
2019-03-04T07:24:55.121Z,97438.20
2019-03-04T07:27:30.587Z,97442.89
2019-03-04T07:30:10.546Z,97433.36
2019-03-04T07:32:49.594Z,97423.26
2019-03-04T07:35:25.468Z,97423.86
2019-03-04T07:38:52.906Z,97427.02
2019-03-04T07:41:32.296Z,97440.76
2019-03-04T07:44:08.467Z,97437.66
2019-03-04T07:46:45.142Z,97441.91
2019-03-04T07:49:23.691Z,97444.70
2019-03-04T07:52:08.357Z,97436.31
2019-03-04T07:54:48.889Z,97431.71
2019-03-04T07:57:29.711Z,97439.13
2019-03-04T08:00:16.035Z,97438.48
2019-03-04T08:03:08.855Z,97453.75
2019-03-04T08:06:04.725Z,97442.23
2019-03-04T08:10:10.124Z,97462.43
2019-03-04T08:13:19.156Z,97445.59
2019-03-04T08:15:59.498Z,97454.65
2019-03-04T08:18:34.862Z,97468.56
2019-03-04T08:21:10.673Z,97471.15
2019-03-04T08:23:47.999Z,97459.67
2019-03-04T08:26:21.650Z,97464.87
2019-03-04T08:28:54.847Z,97460.31
2019-03-04T08:31:28.452Z,97482.34
2019-03-04T08:34:02.714Z,97473.33
2019-03-04T08:36:37.069Z,97481.47
2019-03-04T08:39:10.814Z,97489.36
2019-03-04T08:41:45.628Z,97488.39
2019-03-04T08:44:31.386Z,97481.61
2019-03-04T08:47:36.514Z,97498.78
2019-03-04T08:50:31.256Z,97490.41
2019-03-04T08:53:15.830Z,97481.52
2019-03-04T08:56:12.402Z,97493.78
2019-03-04T08:59:12.624Z,97485.61
2019-03-04T09:01:55.767Z,97493.05
2019-03-04T09:04:36.322Z,97490.72
2019-03-04T09:07:21.079Z,97500.83
2019-03-04T09:09:55.609Z,97484.36
2019-03-04T09:12:33.011Z,97479.98
2019-03-04T09:15:12.570Z,97490.61
2019-03-04T09:17:48.769Z,97459.58
2019-03-04T09:20:23.769Z,97479.70
2019-03-04T09:22:57.384Z,97493.62
2019-03-04T09:25:42.006Z,97490.91
2019-03-04T09:28:18.077Z,97503.36
2019-03-04T09:30:52.297Z,97483.30
2019-03-04T09:33:26.352Z,97482.58
2019-03-04T09:36:00.172Z,97471.54
2019-03-04T09:38:36.799Z,97484.48
2019-03-04T09:41:18.579Z,97496.41
2019-03-04T09:43:56.015Z,97478.92
2019-03-04T09:46:32.465Z,97498.53
2019-03-04T09:49:10.824Z,97477.16
2019-03-04T09:51:48.657Z,97466.92
2019-03-04T09:54:22.202Z,97478.09
2019-03-04T09:56:55.983Z,97501.58
2019-03-04T09:59:30.324Z,97482.89
2019-03-04T10:02:12.004Z,97454.34
2019-03-04T10:05:30.137Z,97467.45
2019-03-04T10:09:07.051Z,97455.31
2019-03-04T10:12:31.657Z,97471.36
2019-03-04T10:16:19.135Z,97466.33
2019-03-04T10:20:03.997Z,97463.87
2019-03-04T10:23:07.695Z,97458.23
2019-03-04T10:26:41.550Z,97427.27
2019-03-04T10:30:05.299Z,97439.22
2019-03-04T10:33:32.802Z,97451.25
2019-03-04T10:36:41.078Z,97452.02
2019-03-04T10:40:25.530Z,97432.59
2019-03-04T10:44:25.373Z,97450.07
2019-03-04T10:47:03.979Z,97454.94
2019-03-04T10:49:38.802Z,97446.64
2019-03-04T10:52:13.331Z,97493.09
2019-03-04T10:54:48.208Z,97465.05
2019-03-04T10:57:23.750Z,97447.37
2019-03-04T10:59:57.415Z,97440.11
2019-03-04T11:02:30.709Z,97446.05
2019-03-04T11:05:08.611Z,97443.66
2019-03-04T11:07:41.354Z,97408.57
2019-03-04T11:10:14.349Z,97438.31
2019-03-04T11:12:47.499Z,97422.05
2019-03-04T11:15:28.004Z,97389.06
2019-03-04T11:18:01.628Z,97441.89
2019-03-04T11:20:35.515Z,97497.38
2019-03-04T11:23:08.205Z,97544.58
2019-03-04T11:25:41.090Z,97563.16
2019-03-04T11:28:16.411Z,97607.31
2019-03-04T11:30:51.806Z,97575.16
2019-03-04T11:33:24.682Z,97593.36
2019-03-04T11:36:03.171Z,97595.43
2019-03-04T11:38:48.739Z,97595.43
2019-03-04T11:41:24.080Z,97607.91
2019-03-04T11:44:05.524Z,97612.68
2019-03-04T11:46:40.280Z,97612.52
2019-03-04T11:49:15.071Z,97620.02
2019-03-04T11:51:50.297Z,97617.34
2019-03-04T11:54:25.374Z,97615.83
2019-03-04T11:57:00.087Z,97632.14
2019-03-04T11:59:36.449Z,97645.08
2019-03-04T12:02:16.994Z,97644.09
2019-03-04T12:04:51.625Z,97648.27
2019-03-04T12:07:24.773Z,97663.64
2019-03-04T12:09:59.055Z,97669.63
2019-03-04T12:12:31.740Z,97671.16
2019-03-04T12:15:13.555Z,97679.94
2019-03-04T12:17:50.086Z,97695.75
2019-03-04T12:20:27.375Z,97701.94
2019-03-04T12:23:16.902Z,97707.09
2019-03-04T12:25:52.539Z,97715.84
2019-03-04T12:28:26.520Z,97722.84
2019-03-04T12:30:59.193Z,97730.19
2019-03-04T12:33:34.521Z,97734.89
2019-03-04T12:36:07.574Z,97730.67
2019-03-04T12:38:40.789Z,97733.89
2019-03-04T12:41:14.052Z,97749.16
2019-03-04T12:43:53.303Z,97749.74
2019-03-04T12:46:27.177Z,97756.82
2019-03-04T12:49:07.598Z,97785.75
2019-03-04T12:51:40.904Z,97769.98
2019-03-04T12:54:14.630Z,97779.05
2019-03-04T12:56:47.634Z,97785.84
2019-03-04T12:59:22.688Z,97795.60
2019-03-04T13:01:58.121Z,97797.89
2019-03-04T13:04:30.903Z,97817.57
2019-03-04T13:07:03.639Z,97800.89
2019-03-04T13:09:39.815Z,97805.41
2019-03-04T13:12:14.575Z,97818.48
2019-03-04T13:14:48.884Z,97813.55
2019-03-04T13:17:23.087Z,97814.23
2019-03-04T13:19:56.600Z,97819.14
2019-03-04T13:22:30.728Z,97825.25
2019-03-04T13:25:05.987Z,97827.77
2019-03-04T13:27:39.885Z,97835.04
2019-03-04T13:30:22.430Z,97832.56
2019-03-04T13:33:02.777Z,97854.30
2019-03-04T13:35:39.382Z,97847.52
2019-03-04T13:38:14.083Z,97866.34
2019-03-04T13:40:49.711Z,97869.52
2019-03-04T13:43:23.996Z,97873.16
2019-03-04T13:45:58.097Z,97877.84
2019-03-04T13:48:30.850Z,97892.65
2019-03-04T13:51:05.201Z,97896.70
2019-03-04T13:53:40.736Z,97894.84
2019-03-04T13:56:13.623Z,97910.91
2019-03-04T13:58:46.517Z,97904.69
2019-03-04T14:01:24.548Z,97904.61
2019-03-04T14:03:57.327Z,97903.73
2019-03-04T14:06:33.015Z,97919.73
2019-03-04T14:09:12.492Z,97931.03
2019-03-04T14:11:49.582Z,97910.13
2019-03-04T14:14:22.783Z,97923.41
2019-03-04T14:16:55.926Z,97924.59
2019-03-04T14:19:48.999Z,97949.09
2019-03-04T14:22:40.156Z,97937.20
2019-03-04T14:25:15.114Z,97937.95
2019-03-04T14:27:48.226Z,97943.66
2019-03-04T14:30:23.064Z,97943.17
2019-03-04T14:32:56.582Z,97944.97
2019-03-04T14:35:33.141Z,97958.52
2019-03-04T14:38:06.626Z,97952.92
2019-03-04T14:40:40.861Z,97977.00
2019-03-04T14:43:14.273Z,97979.25
2019-03-04T14:45:54.177Z,98000.88
2019-03-04T14:48:28.168Z,97999.14
2019-03-04T14:51:01.255Z,98001.23
2019-03-04T14:53:35.897Z,98004.17
2019-03-04T14:56:10.064Z,98004.01
2019-03-04T14:58:43.007Z,98011.98
2019-03-04T15:01:16.424Z,98020.23
2019-03-04T15:03:54.015Z,98031.80
2019-03-04T15:06:32.205Z,98038.12
2019-03-04T15:09:10.716Z,98045.94
2019-03-04T15:11:46.857Z,98054.03
2019-03-04T15:14:21.017Z,98054.45
2019-03-04T15:17:03.337Z,98061.38
2019-03-04T15:19:38.291Z,98060.30
2019-03-04T15:22:15.771Z,98066.11
2019-03-04T15:24:48.779Z,98082.64
2019-03-04T15:27:21.630Z,98077.98
2019-03-04T15:29:55.495Z,98077.14
2019-03-04T15:32:29.571Z,98084.25
2019-03-04T15:35:06.048Z,98086.37
2019-03-04T15:37:42.478Z,98085.03
2019-03-04T15:40:15.375Z,98093.32
2019-03-04T15:42:58.073Z,98097.73
2019-03-04T15:45:34.271Z,98116.80
2019-03-04T15:48:29.922Z,98131.34
2019-03-04T15:51:04.083Z,98117.70
2019-03-04T15:53:37.381Z,98133.83
2019-03-04T15:56:13.197Z,98134.61
2019-03-04T15:58:47.286Z,98139.56
2019-03-04T16:01:22.300Z,98152.72
2019-03-04T16:04:01.422Z,98162.30
2019-03-04T16:06:36.716Z,98157.01
2019-03-04T16:09:21.111Z,98152.27
2019-03-04T16:11:54.164Z,98150.28
2019-03-04T16:14:37.870Z,98163.77
2019-03-04T16:17:16.460Z,98162.78
2019-03-04T16:19:59.188Z,98167.41
2019-03-04T16:22:32.159Z,98189.01
2019-03-04T16:25:06.815Z,98189.41
2019-03-04T16:27:49.657Z,98176.67
2019-03-04T16:30:24.828Z,98187.92
2019-03-04T16:32:58.043Z,98203.60
2019-03-04T16:35:31.821Z,98189.39
2019-03-04T16:38:05.394Z,98196.19
2019-03-04T16:40:38.391Z,98202.08
2019-03-04T16:43:12.031Z,98203.80
2019-03-04T16:45:47.502Z,98208.20
2019-03-04T16:48:21.684Z,98210.67
2019-03-04T16:50:54.254Z,98219.50
2019-03-04T16:53:28.303Z,98222.09
2019-03-04T16:56:06.380Z,98231.80
2019-03-04T16:58:38.914Z,98236.40
2019-03-04T17:01:13.192Z,98242.72
2019-03-04T17:03:47.860Z,98244.33
2019-03-04T17:06:20.603Z,98249.05
2019-03-04T17:08:53.837Z,98251.42
2019-03-04T17:11:26.606Z,98252.84
2019-03-04T17:14:01.013Z,98254.05
2019-03-04T17:16:36.029Z,98260.63
2019-03-04T17:19:09.606Z,98265.07
2019-03-04T17:21:44.075Z,98267.31
2019-03-04T17:24:18.078Z,98278.92
2019-03-04T17:26:52.681Z,98281.11
2019-03-04T17:29:26.956Z,98282.27
2019-03-04T17:32:01.099Z,98294.06
2019-03-04T17:34:36.393Z,98300.67
2019-03-04T17:37:11.828Z,98300.38
2019-03-04T17:39:48.891Z,98301.12
2019-03-04T17:42:22.703Z,98311.86
2019-03-04T17:44:57.752Z,98314.00
2019-03-04T17:47:30.898Z,98316.75
2019-03-04T17:50:08.410Z,98321.98
2019-03-04T17:52:42.040Z,98329.14
2019-03-04T17:55:17.667Z,98327.37
2019-03-04T17:57:50.814Z,98331.94
2019-03-04T18:00:24.379Z,98337.27
2019-03-04T18:02:59.407Z,98340.62
2019-03-04T18:05:32.336Z,98339.22
2019-03-04T18:08:05.368Z,98344.23
2019-03-04T18:10:38.333Z,98345.77
2019-03-04T18:13:12.543Z,98345.13
2019-03-04T18:15:46.321Z,98353.39
2019-03-04T18:18:21.450Z,98357.17
2019-03-04T18:20:54.488Z,98362.95
2019-03-04T18:23:28.209Z,98359.38
2019-03-04T18:26:19.790Z,98363.81
2019-03-04T18:29:23.400Z,98360.69
2019-03-04T18:32:50.351Z,98370.09
2019-03-04T18:36:00.635Z,98377.89
2019-03-04T18:39:11.076Z,98375.88
2019-03-04T18:42:19.403Z,98379.27
2019-03-04T18:45:57.038Z,98401.11
2019-03-04T18:48:58.705Z,98382.97
2019-03-04T18:51:34.700Z,98384.70
2019-03-04T18:54:19.397Z,98383.45
2019-03-04T18:56:52.372Z,98392.02
2019-03-04T18:59:25.670Z,98394.78
2019-03-04T19:02:08.299Z,98391.24
2019-03-04T19:04:44.835Z,98396.20
2019-03-04T19:07:21.319Z,98400.52
2019-03-04T19:09:57.881Z,98392.03
2019-03-04T19:12:40.444Z,98400.70
2019-03-04T19:15:15.792Z,98396.39
2019-03-04T19:17:52.894Z,98398.61
2019-03-04T19:20:25.801Z,98404.62
2019-03-04T19:23:00.799Z,98400.17
2019-03-04T19:25:34.087Z,98403.48
2019-03-04T19:28:08.374Z,98400.88
2019-03-04T19:30:42.083Z,98404.28
2019-03-04T19:33:15.424Z,98411.12
2019-03-04T19:35:48.178Z,98406.88
2019-03-04T19:38:22.159Z,98414.47
2019-03-04T19:40:55.143Z,98421.79
2019-03-04T19:43:32.809Z,98418.55
2019-03-04T19:46:08.601Z,98422.08
2019-03-04T19:48:43.928Z,98427.21
2019-03-04T19:51:17.527Z,98423.26
2019-03-04T19:53:50.298Z,98429.85
2019-03-04T19:56:23.159Z,98426.16
2019-03-04T19:58:57.365Z,98431.45
2019-03-04T20:01:31.008Z,98428.05
2019-03-04T20:04:06.835Z,98430.59
2019-03-04T20:06:41.918Z,98423.98
2019-03-04T20:09:14.790Z,98426.98
2019-03-04T20:11:51.989Z,98421.89
2019-03-04T20:14:26.052Z,98419.25
2019-03-04T20:17:01.765Z,98425.03
2019-03-04T20:19:37.068Z,98423.59
2019-03-04T20:22:09.727Z,98413.41
2019-03-04T20:24:43.146Z,98412.33
2019-03-04T20:27:18.784Z,98416.46
2019-03-04T20:29:55.914Z,98416.81
2019-03-04T20:32:30.042Z,98416.77
2019-03-04T20:35:03.949Z,98416.17
2019-03-04T20:37:44.494Z,98416.58
2019-03-04T20:40:19.450Z,98422.41
2019-03-04T20:42:53.438Z,98417.91
2019-03-04T20:45:27.174Z,98424.05
2019-03-04T20:48:02.181Z,98419.22
2019-03-04T20:50:35.351Z,98426.73
2019-03-04T20:53:09.966Z,98425.34
2019-03-04T20:55:42.791Z,98430.31
2019-03-04T20:58:19.583Z,98435.91
2019-03-04T21:00:55.815Z,98428.80
2019-03-04T21:03:34.874Z,98421.67
2019-03-04T21:06:12.499Z,98416.44
2019-03-04T21:08:46.930Z,98444.01
2019-03-04T21:11:20.183Z,98470.69
2019-03-04T21:13:54.379Z,98465.68
2019-03-04T21:16:28.084Z,98507.11
2019-03-04T21:19:02.590Z,98523.88
2019-03-04T21:21:37.596Z,98536.47
2019-03-04T21:24:11.266Z,98526.73
2019-03-04T21:26:49.507Z,98550.02
2019-03-04T21:30:13.758Z,98525.61
2019-03-04T21:33:02.075Z,98544.39
2019-03-04T21:36:45.079Z,98532.88
2019-03-04T21:39:19.291Z,98544.58
2019-03-04T21:42:40.202Z,98537.48
2019-03-04T21:46:24.342Z,98539.73
2019-03-04T21:49:05.640Z,98560.55
2019-03-04T21:52:20.164Z,98556.00
2019-03-04T21:54:56.015Z,98565.75
2019-03-04T21:57:41.283Z,98553.50
2019-03-04T22:00:34.743Z,98563.45
2019-03-04T22:03:25.180Z,98568.06
2019-03-04T22:06:00.536Z,98552.97
2019-03-04T22:08:48.351Z,98550.44
2019-03-04T22:11:26.079Z,98562.52
2019-03-04T22:14:07.559Z,98570.48
2019-03-04T22:16:47.627Z,98567.53
2019-03-04T22:19:30.554Z,98555.26
2019-03-04T22:22:05.525Z,98568.98
2019-03-04T22:24:38.944Z,98571.97
2019-03-04T22:27:15.075Z,98571.22
2019-03-04T22:29:48.350Z,98575.06
2019-03-04T22:32:21.084Z,98579.00
2019-03-04T22:34:54.083Z,98578.24
2019-03-04T22:37:27.537Z,98580.12
2019-03-04T22:40:00.388Z,98578.32
2019-03-04T22:42:33.343Z,98595.53
2019-03-04T22:45:14.082Z,98590.66
2019-03-04T22:47:47.673Z,98598.03
2019-03-04T22:50:22.234Z,98596.92
2019-03-04T22:52:54.851Z,98593.77
2019-03-04T22:55:32.567Z,98588.89
2019-03-04T22:58:05.255Z,98598.52
2019-03-04T23:01:37.999Z,98604.01
2019-03-04T23:04:41.197Z,98603.41
2019-03-04T23:07:41.708Z,98615.94
2019-03-04T23:10:44.659Z,98617.50
2019-03-04T23:13:34.561Z,98613.16
2019-03-04T23:16:09.093Z,98607.72
2019-03-04T23:18:41.608Z,98613.67
2019-03-04T23:21:15.403Z,98622.06
2019-03-04T23:23:47.967Z,98617.98
2019-03-04T23:26:20.742Z,98618.00
2019-03-04T23:28:53.747Z,98621.04
2019-03-04T23:31:29.898Z,98633.59
2019-03-04T23:34:04.384Z,98619.75
2019-03-04T23:36:38.049Z,98634.52
2019-03-04T23:39:10.847Z,98630.11
2019-03-04T23:41:44.223Z,98630.06
2019-03-04T23:44:18.834Z,98630.78
2019-03-04T23:46:51.366Z,98627.36
2019-03-04T23:49:24.529Z,98631.58
2019-03-04T23:51:57.977Z,98629.64
2019-03-04T23:54:30.575Z,98631.67
2019-03-04T23:57:05.602Z,98616.48
2019-03-04T23:59:38.527Z,98613.25
